createdAt,value
2023-09-12T00:00:33.106Z,6.65
2023-09-12T00:03:13.288Z,9.00
2023-09-12T00:06:39.979Z,9.70
2023-09-12T00:08:59.991Z,8.82
2023-09-12T00:13:55.676Z,9.85
2023-09-12T00:16:32.826Z,8.48
2023-09-12T00:19:00.567Z,6.72
2023-09-12T00:21:28.215Z,8.02
2023-09-12T00:23:57.893Z,8.02
2023-09-12T00:26:37.656Z,8.98
2023-09-12T00:29:13.241Z,8.05
2023-09-12T00:31:50.549Z,10.50
2023-09-12T00:34:41.810Z,9.10
2023-09-12T00:37:11.416Z,8.68
2023-09-12T00:39:41.467Z,7.47
2023-09-12T00:42:14.175Z,8.90
2023-09-12T00:44:51.706Z,9.00
2023-09-12T00:47:23.250Z,7.40
2023-09-12T00:50:02.346Z,8.48
2023-09-12T00:52:59.610Z,7.72
2023-09-12T00:55:30.271Z,9.23
2023-09-12T00:58:05.824Z,9.30
2023-09-12T01:00:41.572Z,11.98
2023-09-12T01:03:11.469Z,8.23
2023-09-12T01:08:16.641Z,8.70
2023-09-12T01:10:53.859Z,8.77
2023-09-12T01:13:21.688Z,8.25
2023-09-12T01:16:18.056Z,9.88
2023-09-12T01:21:44.773Z,7.78
2023-09-12T01:24:37.725Z,11.35
2023-09-12T01:30:19.378Z,10.60
2023-09-12T01:32:55.200Z,8.38
2023-09-12T01:35:38.749Z,7.78
2023-09-12T01:38:13.556Z,9.23
2023-09-12T01:40:49.578Z,7.78
2023-09-12T01:43:24.894Z,8.63
2023-09-12T01:46:09.436Z,8.80
2023-09-12T01:48:43.347Z,9.75
2023-09-12T01:51:24.036Z,8.57
2023-09-12T01:53:55.193Z,8.80
2023-09-12T01:59:12.746Z,8.82
2023-09-12T02:01:44.029Z,8.57
2023-09-12T02:04:13.903Z,9.00
2023-09-12T02:06:44.950Z,10.10
2023-09-12T02:09:12.363Z,8.32
2023-09-12T02:11:49.960Z,10.00
2023-09-12T02:14:18.162Z,9.75
2023-09-12T02:16:49.862Z,10.30
2023-09-12T02:19:20.430Z,8.90
2023-09-12T02:21:56.862Z,10.70
2023-09-12T02:24:54.182Z,8.23
2023-09-12T02:27:26.012Z,10.73
2023-09-12T02:29:56.669Z,8.45
2023-09-12T02:32:26.829Z,10.50
2023-09-12T02:35:07.672Z,8.50
2023-09-12T02:37:46.783Z,7.43
2023-09-12T02:40:28.394Z,7.93
2023-09-12T02:43:36.412Z,13.93
2023-09-12T02:46:15.563Z,9.35
2023-09-12T02:48:44.931Z,7.38
2023-09-12T02:51:23.458Z,8.38
2023-09-12T02:53:51.105Z,7.72
2023-09-12T02:56:20.878Z,8.20
2023-09-12T02:58:51.224Z,7.70
2023-09-12T03:01:55.862Z,9.82
2023-09-12T03:04:24.740Z,8.50
2023-09-12T03:09:35.595Z,9.13
2023-09-12T03:12:16.566Z,8.20
2023-09-12T03:14:44.332Z,11.85
2023-09-12T03:17:26.020Z,7.85
2023-09-12T03:20:04.582Z,9.18
2023-09-12T03:25:26.634Z,10.65
2023-09-12T03:28:01.474Z,9.18
2023-09-12T03:30:35.044Z,9.75
2023-09-12T03:33:16.101Z,9.95
2023-09-12T03:35:49.092Z,9.10
2023-09-12T03:38:44.192Z,7.13
2023-09-12T03:41:21.213Z,7.60
2023-09-12T03:43:58.207Z,10.10
2023-09-12T03:46:38.189Z,8.63
2023-09-12T03:49:13.421Z,8.90
2023-09-12T03:51:41.977Z,8.82
2023-09-12T03:54:19.646Z,9.70
2023-09-12T03:56:56.618Z,7.85
2023-09-12T03:59:24.249Z,8.60
2023-09-12T04:02:05.015Z,9.05
2023-09-12T04:04:43.908Z,7.78
2023-09-12T04:07:16.904Z,7.80
2023-09-12T04:09:51.903Z,8.77
2023-09-12T04:12:27.024Z,9.70
2023-09-12T04:15:00.030Z,8.95
2023-09-12T04:17:30.949Z,8.32
2023-09-12T04:20:04.076Z,7.68
2023-09-12T04:22:44.024Z,10.48
2023-09-12T04:25:42.301Z,7.57
2023-09-12T04:31:16.543Z,7.97
2023-09-12T04:33:52.881Z,8.05
2023-09-12T04:36:27.580Z,11.40
2023-09-12T04:38:57.532Z,9.63
2023-09-12T04:41:27.864Z,9.38
2023-09-12T04:44:11.613Z,9.35
2023-09-12T04:46:49.532Z,11.50
2023-09-12T04:49:32.651Z,9.73
2023-09-12T04:54:52.670Z,9.13
2023-09-12T04:57:36.258Z,9.60
2023-09-12T05:00:28.694Z,8.32
2023-09-12T05:03:02.076Z,9.63
2023-09-12T05:06:01.452Z,8.57
2023-09-12T05:08:30.387Z,9.88
2023-09-12T05:11:15.404Z,11.32
2023-09-12T05:13:45.708Z,10.75
2023-09-12T05:19:01.340Z,10.68
2023-09-12T05:21:40.843Z,10.05
2023-09-12T05:24:27.352Z,6.95
2023-09-12T05:27:01.763Z,8.75
2023-09-12T05:29:30.978Z,8.52
2023-09-12T05:31:59.665Z,9.00
2023-09-12T05:34:32.952Z,10.73
2023-09-12T05:37:00.798Z,8.70
2023-09-12T05:39:30.156Z,12.32
2023-09-12T05:42:12.610Z,9.35
2023-09-12T05:45:09.692Z,8.93
2023-09-12T05:47:37.303Z,8.13
2023-09-12T05:50:08.285Z,9.32
2023-09-12T05:52:38.944Z,14.23
2023-09-12T05:55:07.524Z,19.33
2023-09-12T05:57:35.265Z,10.40
2023-09-12T06:00:02.808Z,19.48
2023-09-12T06:02:31.984Z,14.70
2023-09-12T06:04:59.323Z,16.17
2023-09-12T06:07:29.761Z,16.52
2023-09-12T06:10:03.068Z,9.85
2023-09-12T06:12:35.720Z,11.55
2023-09-12T06:15:06.076Z,8.98
2023-09-12T06:17:39.169Z,12.30
2023-09-12T06:20:19.954Z,10.55
2023-09-12T06:22:47.294Z,9.63
2023-09-12T06:25:19.581Z,8.68
2023-09-12T06:28:11.938Z,8.40
2023-09-12T06:30:42.248Z,9.77
2023-09-12T06:33:09.562Z,10.07
2023-09-12T06:35:49.271Z,9.38
2023-09-12T06:38:18.430Z,12.40
2023-09-12T06:40:46.212Z,10.32
2023-09-12T06:43:13.617Z,9.02
2023-09-12T06:45:43.384Z,8.18
2023-09-12T06:48:17.980Z,8.77
2023-09-12T06:51:06.085Z,7.95
2023-09-12T06:54:07.587Z,10.48
2023-09-12T06:56:55.537Z,11.15
2023-09-12T07:02:12.800Z,11.68
2023-09-12T07:04:40.079Z,13.38
2023-09-12T07:07:07.293Z,9.90
2023-09-12T07:09:41.841Z,9.23
2023-09-12T07:12:15.012Z,10.52
2023-09-12T07:14:53.359Z,9.25
2023-09-12T07:17:20.449Z,10.80
2023-09-12T07:19:50.162Z,12.32
2023-09-12T07:22:24.695Z,13.90
2023-09-12T07:25:20.760Z,12.52
2023-09-12T07:28:11.433Z,10.25
2023-09-12T07:31:02.575Z,11.32
2023-09-12T07:33:31.969Z,14.88
2023-09-12T07:36:05.591Z,12.27
2023-09-12T07:38:43.897Z,14.35
2023-09-12T07:41:27.634Z,11.98
2023-09-12T07:44:00.423Z,12.18
2023-09-12T07:46:44.891Z,18.88
2023-09-12T07:49:12.339Z,11.05
2023-09-12T07:51:43.965Z,12.98
2023-09-12T07:57:15.317Z,11.13
2023-09-12T07:59:45.582Z,13.32
2023-09-12T08:02:16.315Z,15.38
2023-09-12T08:07:44.393Z,12.43
2023-09-12T08:10:18.421Z,10.70
2023-09-12T08:12:50.001Z,12.40
2023-09-12T08:15:20.154Z,11.23
2023-09-12T08:17:53.308Z,12.20
2023-09-12T08:20:28.320Z,11.43
2023-09-12T08:22:55.440Z,14.82
2023-09-12T08:25:26.086Z,11.60
2023-09-12T08:27:53.178Z,10.73
2023-09-12T08:30:20.740Z,12.25
2023-09-12T08:33:18.529Z,10.55
2023-09-12T08:35:46.192Z,11.45
2023-09-12T08:38:13.379Z,11.23
2023-09-12T08:40:56.310Z,10.65
2023-09-12T08:43:30.719Z,11.25
2023-09-12T08:45:57.953Z,14.85
2023-09-12T08:48:36.045Z,11.07
2023-09-12T08:51:10.826Z,12.70
2023-09-12T08:53:37.901Z,10.40
2023-09-12T08:56:09.913Z,12.13
2023-09-12T08:58:37.287Z,10.55
2023-09-12T09:01:05.843Z,10.45
2023-09-12T09:03:36.739Z,9.50
2023-09-12T09:08:51.141Z,10.18
2023-09-12T09:11:28.568Z,9.00
2023-09-12T09:13:57.398Z,10.23
2023-09-12T09:16:48.072Z,9.65
2023-09-12T09:19:22.125Z,9.38
2023-09-12T09:22:07.673Z,10.85
2023-09-12T09:24:42.025Z,9.52
2023-09-12T09:27:09.392Z,8.23
2023-09-12T09:32:38.335Z,9.68
2023-09-12T09:35:10.471Z,9.13
2023-09-12T09:37:43.256Z,7.75
2023-09-12T09:43:03.726Z,7.25
2023-09-12T09:45:53.019Z,9.98
2023-09-12T09:48:25.876Z,12.75
2023-09-12T09:51:04.583Z,11.20
2023-09-12T09:53:37.839Z,11.88
2023-09-12T09:56:26.344Z,11.85
2023-09-12T09:58:57.949Z,11.75
2023-09-12T10:01:47.500Z,13.05
2023-09-12T10:04:19.232Z,9.68
2023-09-12T10:07:04.383Z,12.13
2023-09-12T10:09:48.720Z,12.77
2023-09-12T10:12:18.210Z,12.73
2023-09-12T10:14:56.610Z,10.82
2023-09-12T10:17:27.967Z,8.75
2023-09-12T10:23:13.286Z,10.02
2023-09-12T10:26:05.692Z,9.35
2023-09-12T10:28:34.079Z,9.55
2023-09-12T10:31:30.713Z,7.70
2023-09-12T10:34:02.244Z,10.15
2023-09-12T10:36:33.090Z,7.80
2023-09-12T10:39:06.150Z,8.82
2023-09-12T10:41:39.234Z,11.05
2023-09-12T10:44:21.280Z,8.15
2023-09-12T10:47:13.204Z,8.23
2023-09-12T10:49:57.044Z,9.50
2023-09-12T10:52:43.760Z,9.65
2023-09-12T10:55:21.950Z,9.70
2023-09-12T11:01:29.136Z,10.50
2023-09-12T11:04:30.255Z,9.30
2023-09-12T11:07:47.855Z,8.00
2023-09-12T11:10:30.970Z,8.70
2023-09-12T11:13:25.980Z,10.73
2023-09-12T11:22:34.854Z,9.88
2023-09-12T11:25:09.173Z,9.40
2023-09-12T11:28:06.428Z,7.03
2023-09-12T11:30:42.664Z,10.02
2023-09-12T11:33:25.076Z,9.43
2023-09-12T11:36:31.171Z,11.55
2023-09-12T11:39:30.278Z,9.05
2023-09-12T11:42:30.538Z,13.70
2023-09-12T11:48:02.088Z,10.68
2023-09-12T11:54:27.366Z,8.82
2023-09-12T12:00:02.734Z,7.20
2023-09-12T12:02:41.834Z,7.18
2023-09-12T12:05:18.796Z,7.15
2023-09-12T12:11:11.166Z,10.02
2023-09-12T12:14:01.514Z,10.20
2023-09-12T12:19:38.927Z,7.47
2023-09-12T12:22:23.212Z,8.20
2023-09-12T12:25:58.537Z,6.75
2023-09-12T12:28:50.271Z,8.98
2023-09-12T12:31:24.996Z,6.82
2023-09-12T12:37:13.315Z,7.90
2023-09-12T12:40:39.834Z,7.13
2023-09-12T12:46:52.750Z,9.65
2023-09-12T17:16:27.151Z,9.48
2023-09-12T17:18:54.459Z,8.55
2023-09-12T17:21:21.411Z,6.82
2023-09-12T17:23:49.773Z,10.38
2023-09-12T17:26:19.329Z,6.47
2023-09-12T17:28:49.381Z,10.20
2023-09-12T17:31:25.185Z,4.72
2023-09-12T17:36:37.451Z,5.57
2023-09-12T17:41:51.258Z,3.67
2023-09-12T17:44:18.745Z,6.57
2023-09-12T17:46:45.994Z,5.22
2023-09-12T17:49:13.054Z,4.47
2023-09-12T17:51:41.825Z,6.60
2023-09-12T17:54:08.916Z,3.95
2023-09-12T17:56:36.075Z,6.38
2023-09-12T17:59:03.193Z,3.47
2023-09-12T18:01:30.564Z,5.00
2023-09-12T18:04:00.375Z,4.78
2023-09-12T18:06:30.492Z,3.15
2023-09-12T18:09:08.390Z,3.63
2023-09-12T18:11:38.823Z,4.00
2023-09-12T18:14:08.928Z,4.38
2023-09-12T18:16:36.835Z,2.58
2023-09-12T18:19:04.365Z,3.70
2023-09-12T18:21:31.487Z,3.20
2023-09-12T18:23:58.587Z,3.63
2023-09-12T18:26:26.971Z,4.95
2023-09-12T18:29:00.493Z,2.88
2023-09-12T18:31:27.651Z,2.90
2023-09-12T18:33:54.819Z,5.40
2023-09-12T18:36:24.339Z,4.13
2023-09-12T18:38:51.352Z,4.85
2023-09-12T18:41:19.630Z,2.97
2023-09-12T18:43:50.834Z,2.70
2023-09-12T18:46:18.026Z,3.33
2023-09-12T18:48:47.249Z,3.40
2023-09-12T18:51:14.461Z,4.28
2023-09-12T18:53:44.245Z,4.10
2023-09-12T18:56:14.790Z,2.67
2023-09-12T18:58:52.609Z,2.85
2023-09-12T19:01:22.917Z,3.83
2023-09-12T19:03:50.646Z,3.42
2023-09-12T19:06:18.075Z,3.47
2023-09-12T19:08:45.176Z,3.67
2023-09-12T19:11:12.289Z,2.92
2023-09-12T19:13:39.706Z,3.47
2023-09-12T19:16:07.136Z,3.15
2023-09-12T19:18:34.281Z,5.05
2023-09-12T19:21:01.599Z,3.20
2023-09-12T19:23:31.320Z,2.60
2023-09-12T19:25:58.659Z,3.65
2023-09-12T19:28:26.083Z,3.88
2023-09-12T19:30:53.374Z,5.50
2023-09-12T19:33:22.784Z,4.07
2023-09-12T19:35:49.789Z,2.78
2023-09-12T19:38:28.712Z,3.15
2023-09-12T19:41:02.335Z,4.70
2023-09-12T19:43:37.860Z,4.55
2023-09-12T19:46:07.175Z,2.97
2023-09-12T19:48:36.436Z,2.92
2023-09-12T19:51:07.956Z,2.42
2023-09-12T19:53:46.569Z,6.88
2023-09-12T19:56:13.980Z,2.88
2023-09-12T19:58:41.242Z,2.95
2023-09-12T20:01:08.822Z,6.22
2023-09-12T20:03:44.261Z,3.47
2023-09-12T20:06:12.135Z,3.45
2023-09-12T20:08:39.845Z,4.60
2023-09-12T20:11:11.844Z,3.50
2023-09-12T20:13:57.976Z,2.83
2023-09-12T20:16:25.373Z,4.85
2023-09-12T20:18:57.373Z,3.05
2023-09-12T20:29:37.564Z,2.45
2023-09-12T20:32:18.973Z,4.38
2023-09-12T20:34:48.477Z,3.33
2023-09-12T20:37:18.576Z,3.20
2023-09-12T20:39:50.907Z,3.03
2023-09-12T20:42:32.122Z,4.32
2023-09-12T20:45:32.334Z,7.05
2023-09-12T20:48:07.737Z,3.03
2023-09-12T20:59:37.181Z,6.60
